sensor_id;sensor_type;location;lat;lon;timestamp;P1;durP1;ratioP1;P2;durP2;ratioP2
19877;SDS011;10101;52.204;9.910;2023-12-07T00:00:04;17.33;;;10.80;;
19877;SDS011;10101;52.204;9.910;2023-12-07T00:02:33;16.50;;;11.90;;
19877;SDS011;10101;52.204;9.910;2023-12-07T00:05:00;18.27;;;12.80;;
19877;SDS011;10101;52.204;9.910;2023-12-07T00:07:26;17.07;;;11.10;;
19877;SDS011;10101;52.204;9.910;2023-12-07T00:09:53;15.93;;;11.37;;
19877;SDS011;10101;52.204;9.910;2023-12-07T00:12:20;17.10;;;11.83;;
19877;SDS011;10101;52.204;9.910;2023-12-07T00:14:46;17.40;;;11.27;;
19877;SDS011;10101;52.204;9.910;2023-12-07T00:17:13;16.37;;;10.03;;
19877;SDS011;10101;52.204;9.910;2023-12-07T00:19:41;18.77;;;11.07;;
19877;SDS011;10101;52.204;9.910;2023-12-07T00:22:08;16.20;;;10.97;;
19877;SDS011;10101;52.204;9.910;2023-12-07T00:24:35;19.50;;;11.63;;
19877;SDS011;10101;52.204;9.910;2023-12-07T00:27:02;15.97;;;11.33;;
19877;SDS011;10101;52.204;9.910;2023-12-07T00:29:30;18.33;;;11.27;;
19877;SDS011;10101;52.204;9.910;2023-12-07T00:31:57;18.00;;;10.70;;
19877;SDS011;10101;52.204;9.910;2023-12-07T00:34:23;14.43;;;10.23;;
19877;SDS011;10101;52.204;9.910;2023-12-07T00:36:52;15.40;;;10.63;;
19877;SDS011;10101;52.204;9.910;2023-12-07T00:39:19;14.20;;;9.83;;
19877;SDS011;10101;52.204;9.910;2023-12-07T00:41:46;16.90;;;11.20;;
19877;SDS011;10101;52.204;9.910;2023-12-07T00:44:13;15.27;;;10.20;;
19877;SDS011;10101;52.204;9.910;2023-12-07T00:46:39;15.27;;;9.67;;
19877;SDS011;10101;52.204;9.910;2023-12-07T00:49:06;16.30;;;10.63;;
19877;SDS011;10101;52.204;9.910;2023-12-07T00:51:33;14.80;;;10.03;;
19877;SDS011;10101;52.204;9.910;2023-12-07T00:54:01;16.43;;;10.90;;
19877;SDS011;10101;52.204;9.910;2023-12-07T00:56:28;18.13;;;10.87;;
19877;SDS011;10101;52.204;9.910;2023-12-07T00:58:55;15.20;;;10.67;;
19877;SDS011;10101;52.204;9.910;2023-12-07T01:01:21;15.47;;;10.03;;
19877;SDS011;10101;52.204;9.910;2023-12-07T01:03:48;16.23;;;10.87;;
19877;SDS011;10101;52.204;9.910;2023-12-07T01:06:15;16.87;;;10.80;;
19877;SDS011;10101;52.204;9.910;2023-12-07T01:08:41;15.23;;;9.87;;
19877;SDS011;10101;52.204;9.910;2023-12-07T01:11:10;14.73;;;10.57;;
19877;SDS011;10101;52.204;9.910;2023-12-07T01:13:37;14.63;;;10.27;;
19877;SDS011;10101;52.204;9.910;2023-12-07T01:16:03;16.40;;;10.87;;
19877;SDS011;10101;52.204;9.910;2023-12-07T01:18:30;15.77;;;9.97;;
19877;SDS011;10101;52.204;9.910;2023-12-07T01:20:57;16.50;;;10.90;;
19877;SDS011;10101;52.204;9.910;2023-12-07T01:23:24;14.27;;;10.10;;
19877;SDS011;10101;52.204;9.910;2023-12-07T01:25:51;15.67;;;10.70;;
19877;SDS011;10101;52.204;9.910;2023-12-07T01:28:19;17.80;;;10.90;;
19877;SDS011;10101;52.204;9.910;2023-12-07T01:30:46;17.53;;;10.57;;
19877;SDS011;10101;52.204;9.910;2023-12-07T01:33:12;16.43;;;10.97;;
19877;SDS011;10101;52.204;9.910;2023-12-07T01:35:39;15.23;;;10.33;;
19877;SDS011;10101;52.204;9.910;2023-12-07T01:38:06;15.70;;;10.77;;
19877;SDS011;10101;52.204;9.910;2023-12-07T01:40:32;15.27;;;10.80;;
19877;SDS011;10101;52.204;9.910;2023-12-07T01:42:59;17.80;;;11.30;;
19877;SDS011;10101;52.204;9.910;2023-12-07T01:45:27;16.97;;;11.27;;
19877;SDS011;10101;52.204;9.910;2023-12-07T01:47:54;16.57;;;10.20;;
19877;SDS011;10101;52.204;9.910;2023-12-07T01:50:23;14.50;;;9.97;;
19877;SDS011;10101;52.204;9.910;2023-12-07T01:52:51;15.97;;;10.33;;
19877;SDS011;10101;52.204;9.910;2023-12-07T01:55:21;15.30;;;10.77;;
19877;SDS011;10101;52.204;9.910;2023-12-07T01:57:49;17.97;;;11.10;;
19877;SDS011;10101;52.204;9.910;2023-12-07T02:00:16;16.17;;;11.03;;
19877;SDS011;10101;52.204;9.910;2023-12-07T02:02:44;17.03;;;11.87;;
19877;SDS011;10101;52.204;9.910;2023-12-07T02:05:12;15.67;;;10.40;;
19877;SDS011;10101;52.204;9.910;2023-12-07T02:07:40;17.50;;;11.17;;
19877;SDS011;10101;52.204;9.910;2023-12-07T02:10:08;15.97;;;10.63;;
19877;SDS011;10101;52.204;9.910;2023-12-07T02:12:36;15.00;;;11.10;;
19877;SDS011;10101;52.204;9.910;2023-12-07T02:15:03;14.93;;;10.77;;
19877;SDS011;10101;52.204;9.910;2023-12-07T02:17:32;15.03;;;10.80;;
19877;SDS011;10101;52.204;9.910;2023-12-07T02:20:05;15.87;;;11.10;;
19877;SDS011;10101;52.204;9.910;2023-12-07T02:22:40;15.80;;;11.67;;
19877;SDS011;10101;52.204;9.910;2023-12-07T02:25:13;16.77;;;10.90;;
19877;SDS011;10101;52.204;9.910;2023-12-07T02:27:42;17.00;;;11.67;;
19877;SDS011;10101;52.204;9.910;2023-12-07T02:30:11;15.30;;;11.10;;
19877;SDS011;10101;52.204;9.910;2023-12-07T02:32:38;16.33;;;11.73;;
19877;SDS011;10101;52.204;9.910;2023-12-07T02:35:06;18.30;;;11.60;;
19877;SDS011;10101;52.204;9.910;2023-12-07T02:37:35;17.30;;;12.63;;
19877;SDS011;10101;52.204;9.910;2023-12-07T02:40:07;16.90;;;11.73;;
19877;SDS011;10101;52.204;9.910;2023-12-07T02:42:35;18.47;;;12.57;;
19877;SDS011;10101;52.204;9.910;2023-12-07T02:45:05;18.57;;;12.13;;
19877;SDS011;10101;52.204;9.910;2023-12-07T02:47:33;19.27;;;12.77;;
19877;SDS011;10101;52.204;9.910;2023-12-07T02:50:00;18.27;;;12.53;;
19877;SDS011;10101;52.204;9.910;2023-12-07T02:52:27;18.57;;;12.80;;
19877;SDS011;10101;52.204;9.910;2023-12-07T02:54:54;18.50;;;12.77;;
19877;SDS011;10101;52.204;9.910;2023-12-07T02:57:21;20.33;;;12.30;;
19877;SDS011;10101;52.204;9.910;2023-12-07T02:59:47;17.27;;;12.70;;
19877;SDS011;10101;52.204;9.910;2023-12-07T03:02:15;19.10;;;12.30;;
19877;SDS011;10101;52.204;9.910;2023-12-07T03:04:42;20.30;;;12.10;;
19877;SDS011;10101;52.204;9.910;2023-12-07T03:07:09;18.83;;;11.77;;
19877;SDS011;10101;52.204;9.910;2023-12-07T03:09:35;16.70;;;11.97;;
19877;SDS011;10101;52.204;9.910;2023-12-07T03:12:02;19.27;;;12.40;;
19877;SDS011;10101;52.204;9.910;2023-12-07T03:14:30;18.37;;;12.23;;
19877;SDS011;10101;52.204;9.910;2023-12-07T03:16:56;16.97;;;11.30;;
19877;SDS011;10101;52.204;9.910;2023-12-07T03:19:24;16.30;;;11.07;;
19877;SDS011;10101;52.204;9.910;2023-12-07T03:21:51;16.67;;;11.97;;
19877;SDS011;10101;52.204;9.910;2023-12-07T03:24:18;16.53;;;10.93;;
19877;SDS011;10101;52.204;9.910;2023-12-07T03:26:45;15.93;;;11.33;;
19877;SDS011;10101;52.204;9.910;2023-12-07T03:29:11;16.73;;;11.30;;
19877;SDS011;10101;52.204;9.910;2023-12-07T03:31:38;17.50;;;11.77;;
19877;SDS011;10101;52.204;9.910;2023-12-07T03:34:05;16.97;;;10.40;;
19877;SDS011;10101;52.204;9.910;2023-12-07T03:36:33;15.10;;;10.27;;
19877;SDS011;10101;52.204;9.910;2023-12-07T03:39:00;15.00;;;10.07;;
19877;SDS011;10101;52.204;9.910;2023-12-07T03:41:28;16.07;;;11.03;;
19877;SDS011;10101;52.204;9.910;2023-12-07T03:43:54;15.10;;;10.60;;
19877;SDS011;10101;52.204;9.910;2023-12-07T03:46:21;17.10;;;11.00;;
19877;SDS011;10101;52.204;9.910;2023-12-07T03:48:48;17.73;;;11.17;;
19877;SDS011;10101;52.204;9.910;2023-12-07T03:51:15;15.63;;;10.47;;
19877;SDS011;10101;52.204;9.910;2023-12-07T03:53:44;16.73;;;10.80;;
19877;SDS011;10101;52.204;9.910;2023-12-07T03:56:10;15.73;;;10.80;;
19877;SDS011;10101;52.204;9.910;2023-12-07T03:58:48;18.50;;;11.20;;
19877;SDS011;10101;52.204;9.910;2023-12-07T04:01:15;18.43;;;11.30;;
19877;SDS011;10101;52.204;9.910;2023-12-07T04:03:42;19.77;;;11.80;;
19877;SDS011;10101;52.204;9.910;2023-12-07T04:06:08;18.13;;;11.53;;
19877;SDS011;10101;52.204;9.910;2023-12-07T04:08:35;17.20;;;11.07;;
19877;SDS011;10101;52.204;9.910;2023-12-07T04:11:03;21.37;;;12.20;;
19877;SDS011;10101;52.204;9.910;2023-12-07T04:13:30;17.50;;;11.70;;
19877;SDS011;10101;52.204;9.910;2023-12-07T04:15:57;16.37;;;11.00;;
19877;SDS011;10101;52.204;9.910;2023-12-07T04:18:23;19.07;;;11.80;;
19877;SDS011;10101;52.204;9.910;2023-12-07T04:20:50;18.33;;;11.70;;
19877;SDS011;10101;52.204;9.910;2023-12-07T04:23:17;19.53;;;11.63;;
19877;SDS011;10101;52.204;9.910;2023-12-07T04:25:43;17.43;;;10.67;;
19877;SDS011;10101;52.204;9.910;2023-12-07T04:28:12;21.30;;;12.10;;
19877;SDS011;10101;52.204;9.910;2023-12-07T04:30:39;20.00;;;12.70;;
19877;SDS011;10101;52.204;9.910;2023-12-07T04:33:06;18.93;;;12.20;;
19877;SDS011;10101;52.204;9.910;2023-12-07T04:35:34;20.53;;;11.50;;
19877;SDS011;10101;52.204;9.910;2023-12-07T04:38:01;20.27;;;12.77;;
19877;SDS011;10101;52.204;9.910;2023-12-07T04:40:28;21.27;;;12.20;;
19877;SDS011;10101;52.204;9.910;2023-12-07T04:42:55;18.73;;;11.90;;
19877;SDS011;10101;52.204;9.910;2023-12-07T04:45:23;15.17;;;11.10;;
19877;SDS011;10101;52.204;9.910;2023-12-07T04:47:50;17.17;;;11.70;;
19877;SDS011;10101;52.204;9.910;2023-12-07T04:50:16;18.00;;;11.93;;
19877;SDS011;10101;52.204;9.910;2023-12-07T04:52:43;16.13;;;11.23;;
19877;SDS011;10101;52.204;9.910;2023-12-07T04:55:10;18.20;;;11.57;;
19877;SDS011;10101;52.204;9.910;2023-12-07T04:57:36;17.27;;;11.10;;
19877;SDS011;10101;52.204;9.910;2023-12-07T05:00:03;17.90;;;11.30;;
19877;SDS011;10101;52.204;9.910;2023-12-07T05:02:35;24.00;;;12.23;;
19877;SDS011;10101;52.204;9.910;2023-12-07T05:05:02;17.87;;;11.77;;
19877;SDS011;10101;52.204;9.910;2023-12-07T05:07:30;22.10;;;12.67;;
19877;SDS011;10101;52.204;9.910;2023-12-07T05:09:56;18.47;;;11.50;;
19877;SDS011;10101;52.204;9.910;2023-12-07T05:12:23;22.63;;;12.03;;
19877;SDS011;10101;52.204;9.910;2023-12-07T05:14:50;17.50;;;11.67;;
19877;SDS011;10101;52.204;9.910;2023-12-07T05:17:16;17.43;;;11.27;;
19877;SDS011;10101;52.204;9.910;2023-12-07T05:19:45;21.13;;;13.37;;
19877;SDS011;10101;52.204;9.910;2023-12-07T05:22:11;19.10;;;11.97;;
19877;SDS011;10101;52.204;9.910;2023-12-07T05:24:40;19.33;;;12.13;;
19877;SDS011;10101;52.204;9.910;2023-12-07T05:27:06;17.00;;;11.17;;
19877;SDS011;10101;52.204;9.910;2023-12-07T05:29:33;19.60;;;12.43;;
19877;SDS011;10101;52.204;9.910;2023-12-07T05:32:00;19.30;;;11.43;;
19877;SDS011;10101;52.204;9.910;2023-12-07T05:34:26;17.07;;;11.43;;
19877;SDS011;10101;52.204;9.910;2023-12-07T05:36:55;18.77;;;11.40;;
19877;SDS011;10101;52.204;9.910;2023-12-07T05:39:21;19.87;;;12.23;;
19877;SDS011;10101;52.204;9.910;2023-12-07T05:41:48;16.87;;;11.20;;
19877;SDS011;10101;52.204;9.910;2023-12-07T05:44:15;19.27;;;11.57;;
19877;SDS011;10101;52.204;9.910;2023-12-07T05:46:46;16.87;;;10.97;;
19877;SDS011;10101;52.204;9.910;2023-12-07T05:49:13;16.67;;;11.00;;
19877;SDS011;10101;52.204;9.910;2023-12-07T05:51:39;17.23;;;10.90;;
19877;SDS011;10101;52.204;9.910;2023-12-07T05:54:08;16.33;;;11.07;;
19877;SDS011;10101;52.204;9.910;2023-12-07T05:56:34;16.43;;;10.33;;
19877;SDS011;10101;52.204;9.910;2023-12-07T05:59:01;16.63;;;10.90;;
19877;SDS011;10101;52.204;9.910;2023-12-07T06:01:28;14.60;;;9.87;;
19877;SDS011;10101;52.204;9.910;2023-12-07T06:03:55;16.60;;;10.77;;
19877;SDS011;10101;52.204;9.910;2023-12-07T06:06:22;16.70;;;9.83;;
19877;SDS011;10101;52.204;9.910;2023-12-07T06:08:49;17.53;;;10.43;;
19877;SDS011;10101;52.204;9.910;2023-12-07T06:11:17;16.90;;;10.47;;
19877;SDS011;10101;52.204;9.910;2023-12-07T06:13:44;14.23;;;10.20;;
19877;SDS011;10101;52.204;9.910;2023-12-07T06:16:11;16.43;;;11.07;;
19877;SDS011;10101;52.204;9.910;2023-12-07T06:18:39;17.60;;;10.73;;
19877;SDS011;10101;52.204;9.910;2023-12-07T06:21:05;16.60;;;10.87;;
19877;SDS011;10101;52.204;9.910;2023-12-07T06:23:32;15.70;;;10.63;;
19877;SDS011;10101;52.204;9.910;2023-12-07T06:26:00;15.07;;;10.30;;
19877;SDS011;10101;52.204;9.910;2023-12-07T06:28:29;16.60;;;10.53;;
19877;SDS011;10101;52.204;9.910;2023-12-07T06:30:57;17.20;;;10.20;;
19877;SDS011;10101;52.204;9.910;2023-12-07T06:33:24;18.57;;;11.03;;
19877;SDS011;10101;52.204;9.910;2023-12-07T06:35:50;16.53;;;10.30;;
19877;SDS011;10101;52.204;9.910;2023-12-07T06:38:17;17.63;;;10.93;;
19877;SDS011;10101;52.204;9.910;2023-12-07T06:40:45;17.90;;;10.50;;
19877;SDS011;10101;52.204;9.910;2023-12-07T06:43:12;18.20;;;11.07;;
19877;SDS011;10101;52.204;9.910;2023-12-07T06:45:40;15.87;;;10.40;;
19877;SDS011;10101;52.204;9.910;2023-12-07T06:48:08;17.03;;;10.80;;
19877;SDS011;10101;52.204;9.910;2023-12-07T06:50:34;18.30;;;10.33;;
19877;SDS011;10101;52.204;9.910;2023-12-07T06:53:01;15.90;;;10.60;;
19877;SDS011;10101;52.204;9.910;2023-12-07T06:55:28;15.97;;;10.73;;
19877;SDS011;10101;52.204;9.910;2023-12-07T06:57:55;16.10;;;10.83;;
19877;SDS011;10101;52.204;9.910;2023-12-07T07:00:22;17.43;;;10.97;;
19877;SDS011;10101;52.204;9.910;2023-12-07T07:02:50;14.23;;;9.87;;
19877;SDS011;10101;52.204;9.910;2023-12-07T07:05:17;17.27;;;10.83;;
19877;SDS011;10101;52.204;9.910;2023-12-07T07:07:44;19.23;;;11.00;;
19877;SDS011;10101;52.204;9.910;2023-12-07T07:10:11;16.10;;;10.63;;
19877;SDS011;10101;52.204;9.910;2023-12-07T07:12:38;17.93;;;11.10;;
19877;SDS011;10101;52.204;9.910;2023-12-07T07:15:06;15.90;;;10.13;;
19877;SDS011;10101;52.204;9.910;2023-12-07T07:17:33;17.77;;;11.23;;
19877;SDS011;10101;52.204;9.910;2023-12-07T07:20:01;17.17;;;9.93;;
19877;SDS011;10101;52.204;9.910;2023-12-07T07:22:28;17.23;;;10.80;;
19877;SDS011;10101;52.204;9.910;2023-12-07T07:24:55;14.03;;;9.87;;
19877;SDS011;10101;52.204;9.910;2023-12-07T07:27:22;17.53;;;11.17;;
19877;SDS011;10101;52.204;9.910;2023-12-07T07:29:49;15.60;;;10.93;;
19877;SDS011;10101;52.204;9.910;2023-12-07T07:32:16;24.93;;;15.47;;
19877;SDS011;10101;52.204;9.910;2023-12-07T07:34:42;20.57;;;11.90;;
19877;SDS011;10101;52.204;9.910;2023-12-07T07:37:10;21.20;;;12.87;;
19877;SDS011;10101;52.204;9.910;2023-12-07T07:39:37;17.90;;;11.27;;
19877;SDS011;10101;52.204;9.910;2023-12-07T07:42:04;20.60;;;13.30;;
19877;SDS011;10101;52.204;9.910;2023-12-07T07:44:31;23.47;;;13.50;;
19877;SDS011;10101;52.204;9.910;2023-12-07T07:46:58;19.97;;;12.10;;
19877;SDS011;10101;52.204;9.910;2023-12-07T07:49:25;19.73;;;12.50;;
19877;SDS011;10101;52.204;9.910;2023-12-07T07:51:51;19.47;;;12.33;;
19877;SDS011;10101;52.204;9.910;2023-12-07T07:54:19;17.80;;;12.33;;
19877;SDS011;10101;52.204;9.910;2023-12-07T07:56:46;20.77;;;12.37;;
19877;SDS011;10101;52.204;9.910;2023-12-07T07:59:13;23.93;;;14.63;;
19877;SDS011;10101;52.204;9.910;2023-12-07T08:01:41;25.30;;;13.47;;
19877;SDS011;10101;52.204;9.910;2023-12-07T08:04:07;21.37;;;13.07;;
19877;SDS011;10101;52.204;9.910;2023-12-07T08:06:35;19.17;;;11.97;;
19877;SDS011;10101;52.204;9.910;2023-12-07T08:09:02;18.20;;;11.43;;
19877;SDS011;10101;52.204;9.910;2023-12-07T08:11:30;18.57;;;12.37;;
19877;SDS011;10101;52.204;9.910;2023-12-07T08:13:58;25.03;;;15.00;;
19877;SDS011;10101;52.204;9.910;2023-12-07T08:16:25;19.43;;;12.30;;
19877;SDS011;10101;52.204;9.910;2023-12-07T08:18:52;18.47;;;12.37;;
19877;SDS011;10101;52.204;9.910;2023-12-07T08:21:20;21.17;;;12.50;;
19877;SDS011;10101;52.204;9.910;2023-12-07T08:23:46;19.50;;;13.60;;
19877;SDS011;10101;52.204;9.910;2023-12-07T08:26:13;20.47;;;13.23;;
19877;SDS011;10101;52.204;9.910;2023-12-07T08:28:42;22.57;;;14.20;;
19877;SDS011;10101;52.204;9.910;2023-12-07T08:31:09;21.20;;;13.73;;
19877;SDS011;10101;52.204;9.910;2023-12-07T08:33:35;19.30;;;12.33;;
19877;SDS011;10101;52.204;9.910;2023-12-07T08:36:04;16.53;;;10.83;;
19877;SDS011;10101;52.204;9.910;2023-12-07T08:38:31;23.83;;;15.33;;
19877;SDS011;10101;52.204;9.910;2023-12-07T08:40:58;21.70;;;14.33;;
19877;SDS011;10101;52.204;9.910;2023-12-07T08:43:25;19.83;;;13.50;;
19877;SDS011;10101;52.204;9.910;2023-12-07T08:45:54;17.13;;;11.07;;
19877;SDS011;10101;52.204;9.910;2023-12-07T08:48:21;17.23;;;10.87;;
19877;SDS011;10101;52.204;9.910;2023-12-07T08:50:48;15.57;;;10.27;;
19877;SDS011;10101;52.204;9.910;2023-12-07T08:53:15;18.70;;;10.80;;
19877;SDS011;10101;52.204;9.910;2023-12-07T08:55:42;19.13;;;11.77;;
19877;SDS011;10101;52.204;9.910;2023-12-07T08:58:08;20.37;;;11.57;;
19877;SDS011;10101;52.204;9.910;2023-12-07T09:00:37;18.60;;;10.57;;
19877;SDS011;10101;52.204;9.910;2023-12-07T09:03:06;16.63;;;10.73;;
19877;SDS011;10101;52.204;9.910;2023-12-07T09:05:33;17.37;;;11.50;;
19877;SDS011;10101;52.204;9.910;2023-12-07T09:07:59;19.77;;;10.90;;
19877;SDS011;10101;52.204;9.910;2023-12-07T09:10:26;16.90;;;10.20;;
19877;SDS011;10101;52.204;9.910;2023-12-07T09:12:53;17.10;;;10.40;;
19877;SDS011;10101;52.204;9.910;2023-12-07T09:15:20;15.87;;;9.97;;
19877;SDS011;10101;52.204;9.910;2023-12-07T09:17:47;17.73;;;10.03;;
19877;SDS011;10101;52.204;9.910;2023-12-07T09:20:16;14.13;;;9.80;;
19877;SDS011;10101;52.204;9.910;2023-12-07T09:22:42;16.97;;;9.53;;
19877;SDS011;10101;52.204;9.910;2023-12-07T09:25:10;14.47;;;8.67;;
19877;SDS011;10101;52.204;9.910;2023-12-07T09:27:37;16.67;;;9.90;;
19877;SDS011;10101;52.204;9.910;2023-12-07T09:30:05;16.53;;;9.53;;
19877;SDS011;10101;52.204;9.910;2023-12-07T09:32:35;16.37;;;9.53;;
19877;SDS011;10101;52.204;9.910;2023-12-07T09:35:03;17.20;;;9.87;;
19877;SDS011;10101;52.204;9.910;2023-12-07T09:37:33;14.47;;;8.70;;
19877;SDS011;10101;52.204;9.910;2023-12-07T09:40:00;16.30;;;9.67;;
19877;SDS011;10101;52.204;9.910;2023-12-07T09:42:29;16.20;;;9.97;;
19877;SDS011;10101;52.204;9.910;2023-12-07T09:44:56;16.13;;;9.60;;
19877;SDS011;10101;52.204;9.910;2023-12-07T09:47:23;15.27;;;9.40;;
19877;SDS011;10101;52.204;9.910;2023-12-07T09:49:51;16.73;;;9.87;;
19877;SDS011;10101;52.204;9.910;2023-12-07T09:52:18;15.53;;;9.23;;
19877;SDS011;10101;52.204;9.910;2023-12-07T09:54:48;14.80;;;8.97;;
19877;SDS011;10101;52.204;9.910;2023-12-07T09:57:16;15.27;;;10.00;;
19877;SDS011;10101;52.204;9.910;2023-12-07T09:59:43;14.60;;;9.30;;
19877;SDS011;10101;52.204;9.910;2023-12-07T10:02:10;17.20;;;10.00;;
19877;SDS011;10101;52.204;9.910;2023-12-07T10:04:36;15.73;;;9.53;;
19877;SDS011;10101;52.204;9.910;2023-12-07T10:07:03;16.77;;;10.00;;
19877;SDS011;10101;52.204;9.910;2023-12-07T10:09:33;15.33;;;9.23;;
19877;SDS011;10101;52.204;9.910;2023-12-07T10:12:05;15.27;;;8.80;;
19877;SDS011;10101;52.204;9.910;2023-12-07T10:14:33;17.13;;;9.17;;
19877;SDS011;10101;52.204;9.910;2023-12-07T10:17:00;13.23;;;9.13;;
19877;SDS011;10101;52.204;9.910;2023-12-07T10:19:26;13.83;;;9.20;;
19877;SDS011;10101;52.204;9.910;2023-12-07T10:21:53;18.17;;;10.47;;
19877;SDS011;10101;52.204;9.910;2023-12-07T10:24:22;18.00;;;11.23;;
19877;SDS011;10101;52.204;9.910;2023-12-07T10:26:51;17.73;;;13.00;;
19877;SDS011;10101;52.204;9.910;2023-12-07T10:29:19;18.43;;;11.20;;
19877;SDS011;10101;52.204;9.910;2023-12-07T10:31:48;18.77;;;12.30;;
19877;SDS011;10101;52.204;9.910;2023-12-07T10:34:17;15.73;;;10.47;;
19877;SDS011;10101;52.204;9.910;2023-12-07T10:36:45;15.77;;;10.20;;
19877;SDS011;10101;52.204;9.910;2023-12-07T10:39:12;16.87;;;9.80;;
19877;SDS011;10101;52.204;9.910;2023-12-07T10:41:39;17.83;;;10.23;;
19877;SDS011;10101;52.204;9.910;2023-12-07T10:44:09;21.03;;;11.13;;
19877;SDS011;10101;52.204;9.910;2023-12-07T10:46:41;19.97;;;11.87;;
19877;SDS011;10101;52.204;9.910;2023-12-07T10:49:10;21.83;;;11.07;;
19877;SDS011;10101;52.204;9.910;2023-12-07T10:51:47;17.83;;;11.07;;
19877;SDS011;10101;52.204;9.910;2023-12-07T10:54:21;16.93;;;10.57;;
19877;SDS011;10101;52.204;9.910;2023-12-07T10:56:48;16.83;;;10.47;;
19877;SDS011;10101;52.204;9.910;2023-12-07T10:59:16;18.30;;;10.57;;
19877;SDS011;10101;52.204;9.910;2023-12-07T11:01:44;17.20;;;10.63;;
19877;SDS011;10101;52.204;9.910;2023-12-07T11:04:13;19.73;;;10.40;;
19877;SDS011;10101;52.204;9.910;2023-12-07T11:06:40;15.13;;;9.53;;
19877;SDS011;10101;52.204;9.910;2023-12-07T11:09:12;18.23;;;10.27;;
19877;SDS011;10101;52.204;9.910;2023-12-07T11:11:44;16.10;;;9.50;;
19877;SDS011;10101;52.204;9.910;2023-12-07T11:14:15;18.00;;;10.43;;
19877;SDS011;10101;52.204;9.910;2023-12-07T11:16:43;18.93;;;9.87;;
19877;SDS011;10101;52.204;9.910;2023-12-07T11:22:12;16.40;;;9.53;;
19877;SDS011;10101;52.204;9.910;2023-12-07T11:24:51;17.77;;;10.57;;
19877;SDS011;10101;52.204;9.910;2023-12-07T11:27:19;18.90;;;10.47;;
19877;SDS011;10101;52.204;9.910;2023-12-07T11:29:47;16.23;;;10.53;;
19877;SDS011;10101;52.204;9.910;2023-12-07T11:32:15;18.13;;;10.77;;
19877;SDS011;10101;52.204;9.910;2023-12-07T11:34:43;18.20;;;11.40;;
19877;SDS011;10101;52.204;9.910;2023-12-07T11:37:10;17.90;;;11.43;;
19877;SDS011;10101;52.204;9.910;2023-12-07T11:39:41;22.97;;;11.20;;
19877;SDS011;10101;52.204;9.910;2023-12-07T11:42:10;17.57;;;10.73;;
19877;SDS011;10101;52.204;9.910;2023-12-07T11:44:37;19.23;;;10.50;;
19877;SDS011;10101;52.204;9.910;2023-12-07T11:47:05;18.87;;;10.83;;
19877;SDS011;10101;52.204;9.910;2023-12-07T11:49:33;20.80;;;12.20;;
19877;SDS011;10101;52.204;9.910;2023-12-07T11:52:00;17.83;;;10.20;;
19877;SDS011;10101;52.204;9.910;2023-12-07T11:54:38;20.17;;;11.17;;
19877;SDS011;10101;52.204;9.910;2023-12-07T11:57:04;19.17;;;11.13;;
19877;SDS011;10101;52.204;9.910;2023-12-07T11:59:31;20.00;;;11.83;;
19877;SDS011;10101;52.204;9.910;2023-12-07T12:01:59;18.20;;;10.57;;
19877;SDS011;10101;52.204;9.910;2023-12-07T12:04:27;16.83;;;10.10;;
19877;SDS011;10101;52.204;9.910;2023-12-07T12:06:55;17.90;;;10.07;;
19877;SDS011;10101;52.204;9.910;2023-12-07T12:09:23;17.93;;;10.40;;
19877;SDS011;10101;52.204;9.910;2023-12-07T12:11:50;17.17;;;10.23;;
19877;SDS011;10101;52.204;9.910;2023-12-07T12:14:17;21.77;;;10.80;;
19877;SDS011;10101;52.204;9.910;2023-12-07T12:16:45;19.37;;;10.13;;
19877;SDS011;10101;52.204;9.910;2023-12-07T12:19:12;23.03;;;11.77;;
19877;SDS011;10101;52.204;9.910;2023-12-07T12:21:40;14.20;;;9.00;;
19877;SDS011;10101;52.204;9.910;2023-12-07T12:24:10;16.53;;;10.30;;
19877;SDS011;10101;52.204;9.910;2023-12-07T12:26:42;23.27;;;10.80;;
19877;SDS011;10101;52.204;9.910;2023-12-07T12:29:10;15.90;;;9.77;;
19877;SDS011;10101;52.204;9.910;2023-12-07T12:31:37;20.27;;;10.33;;
19877;SDS011;10101;52.204;9.910;2023-12-07T12:34:05;15.03;;;8.77;;
19877;SDS011;10101;52.204;9.910;2023-12-07T12:36:33;14.37;;;8.57;;
19877;SDS011;10101;52.204;9.910;2023-12-07T12:39:00;16.70;;;9.53;;
19877;SDS011;10101;52.204;9.910;2023-12-07T12:41:29;18.87;;;9.23;;
19877;SDS011;10101;52.204;9.910;2023-12-07T12:43:57;15.30;;;9.10;;
19877;SDS011;10101;52.204;9.910;2023-12-07T12:46:25;17.40;;;9.43;;
19877;SDS011;10101;52.204;9.910;2023-12-07T12:48:52;16.37;;;8.87;;
19877;SDS011;10101;52.204;9.910;2023-12-07T12:51:23;14.83;;;9.13;;
19877;SDS011;10101;52.204;9.910;2023-12-07T12:53:52;15.60;;;9.67;;
19877;SDS011;10101;52.204;9.910;2023-12-07T12:56:19;15.23;;;9.20;;
19877;SDS011;10101;52.204;9.910;2023-12-07T12:58:48;15.27;;;8.30;;
19877;SDS011;10101;52.204;9.910;2023-12-07T13:01:15;14.90;;;8.87;;
19877;SDS011;10101;52.204;9.910;2023-12-07T13:03:42;14.70;;;8.70;;
19877;SDS011;10101;52.204;9.910;2023-12-07T13:06:10;18.03;;;8.30;;
19877;SDS011;10101;52.204;9.910;2023-12-07T13:08:37;14.87;;;8.33;;
19877;SDS011;10101;52.204;9.910;2023-12-07T13:11:04;13.17;;;8.40;;
19877;SDS011;10101;52.204;9.910;2023-12-07T13:13:31;14.13;;;8.43;;
19877;SDS011;10101;52.204;9.910;2023-12-07T13:15:59;13.87;;;8.57;;
19877;SDS011;10101;52.204;9.910;2023-12-07T13:18:26;14.30;;;8.40;;
19877;SDS011;10101;52.204;9.910;2023-12-07T13:20:52;13.37;;;7.90;;
19877;SDS011;10101;52.204;9.910;2023-12-07T13:23:19;13.77;;;7.33;;
19877;SDS011;10101;52.204;9.910;2023-12-07T13:25:46;11.33;;;7.37;;
19877;SDS011;10101;52.204;9.910;2023-12-07T13:28:13;14.47;;;7.83;;
19877;SDS011;10101;52.204;9.910;2023-12-07T13:30:40;13.63;;;7.60;;
19877;SDS011;10101;52.204;9.910;2023-12-07T13:33:08;12.13;;;7.70;;
19877;SDS011;10101;52.204;9.910;2023-12-07T13:35:35;10.97;;;7.27;;
19877;SDS011;10101;52.204;9.910;2023-12-07T13:38:02;13.90;;;7.80;;
19877;SDS011;10101;52.204;9.910;2023-12-07T13:40:28;11.40;;;7.20;;
19877;SDS011;10101;52.204;9.910;2023-12-07T13:42:55;9.37;;;6.77;;
19877;SDS011;10101;52.204;9.910;2023-12-07T13:45:22;12.57;;;7.40;;
19877;SDS011;10101;52.204;9.910;2023-12-07T13:47:49;12.80;;;7.77;;
19877;SDS011;10101;52.204;9.910;2023-12-07T13:50:17;9.80;;;6.53;;
19877;SDS011;10101;52.204;9.910;2023-12-07T13:52:44;11.03;;;6.93;;
19877;SDS011;10101;52.204;9.910;2023-12-07T13:55:10;8.23;;;6.00;;
19877;SDS011;10101;52.204;9.910;2023-12-07T13:57:37;10.83;;;6.40;;
19877;SDS011;10101;52.204;9.910;2023-12-07T14:00:05;11.07;;;6.20;;
19877;SDS011;10101;52.204;9.910;2023-12-07T14:02:37;8.30;;;5.53;;
19877;SDS011;10101;52.204;9.910;2023-12-07T14:05:04;8.33;;;5.17;;
19877;SDS011;10101;52.204;9.910;2023-12-07T14:07:33;8.13;;;5.07;;
19877;SDS011;10101;52.204;9.910;2023-12-07T14:09:59;7.20;;;5.30;;
19877;SDS011;10101;52.204;9.910;2023-12-07T14:12:27;8.20;;;5.33;;
19877;SDS011;10101;52.204;9.910;2023-12-07T14:14:54;7.30;;;4.67;;
19877;SDS011;10101;52.204;9.910;2023-12-07T14:17:21;8.17;;;5.50;;
19877;SDS011;10101;52.204;9.910;2023-12-07T14:19:47;6.73;;;4.87;;
19877;SDS011;10101;52.204;9.910;2023-12-07T14:22:14;8.50;;;5.43;;
19877;SDS011;10101;52.204;9.910;2023-12-07T14:24:42;7.20;;;4.63;;
19877;SDS011;10101;52.204;9.910;2023-12-07T14:27:09;7.47;;;5.03;;
19877;SDS011;10101;52.204;9.910;2023-12-07T14:29:37;4.83;;;3.70;;